Palanga, Lithuania

9:19 AM EEST on July 29, 2014 (GMT +0300)
IKLAIPED6 Elev 7 ft | 55.75 °N, 21.14 °E | Change Station

Current weather conditions updated 19 minutes ago

Clear
Clear
75.9 °F
Feels Like 77 °F
N
0.0
Wind Variable Wind from WNW
Gusts 0.0 mph

Today is forecast to be nearly the same temperature as yesterday.

Today
High -- | Low -- °F
--% Chance of Precip.
Yesterday
High -- | Low -- °F
Precip. -- in
5:33 AM 9:49 PM
Waxing Crescent, 5% visible
Pressure 29.86 in
Visibility -9999.0 miles
Clouds
Heat Index 77 °F
Dew Point 66 °F
Humidity 72%
Rainfall 0.00 in
Snow Depth Not available.
UV 0.0 out of 12
Pollen Not available.
Air Quality Not available.
Flu Activity Not available.
METAR EVLA 290550Z AUTO VRB01KT CAVOK 22/19 Q1011

More Conditions Fewer Conditions

Pressure 29.86 in
Visibility -9999.0 miles
Clouds
Heat Index 77 °F
Dew Point 66 °F
Humidity 72%
Rainfall 0.00 in
Snow Depth Not available.
UV 0.0 out of 12
Pollen Not available.
Air Quality Not available.
Flu Activity Not available.
METAR EVLA 290550Z AUTO VRB01KT CAVOK 22/19 Q1011

More Conditions Fewer Conditions

10-Day Weather Forecast

Almanac

Astronomy

Jul. 29, 2014 Rise Set
Actual Time 5:33 AM EEST 9:49 PM EEST
Civil Twilight 4:43 AM EEST 10:38 PM EEST
Nautical Twilight 3:27 AM EEST 11:53 PM EEST
Astronomical Twilight 2:14 AM EEST 1:09 AM EEST
Moon 8:30 AM EEST 10:09 PM EEST
Length of Visible Light 17h 54m
Length of Day
16h 15m
Tomorrow will be 3m 45s shorter.
Waxing Crescent, 5% of the Moon is Illuminated
Today
Waxing Crescent
Aug 3
First Quarter
Aug 10
Full
Aug 17
Last Quarter
Aug 25
New

Yesterday's Extremes

Country Highs Country Lows

Community

WunderPhotos

Upload Photos

1,738,642 photos uploaded!

Nearby

Snow Depth

Not available.

Earthquake Activity

City Distance Mag. Time & Date
No recent earthquake activity has been reported nearby.
Minimum magnitude displayed is 2.5.

Coastal Water Temperatures

Place Temperature
No Stations Reporting

Nearby Weather Stations

Station Location Temp. Heat Index Dew Point Humidity Wind Precip. Elev Updated Type
Klaipeda 75.9 °F 77 °F 66 °F 72% WNW  at  0.0 mph 0.00 in / hr 7 ft 8:59 AM EEST Normal

Show More Stations Show Fewer Stations